CSN9949 ZLXY-ZBYN
Flight info
| Callsign | CSN9949 |
|---|---|
| Flight time | 0h 46m |
| Altitude | 35100 |
| Route | WJC9Z WJC G212 AVKES W175 AGVUR |
| Aircraft | A20N/M-SDE2E3FGHIRWXY/LB1 |
Departure
| Time | 2026-05-03 21:26 |
|---|---|
| Airport | Xi'an Xianyang International Airport (ZLXY) |
Arrival
| Time | 2026-05-03 22:13 |
|---|---|
| Airport | Taiyuan Wusu International Airport (ZBYN) |
| Time | Latitude | Longitude | Altitude | Speed | Heading |
|---|---|---|---|---|---|
| 2026-05-03 21:09 | 34.43332 | 108.75971 | 1576 ft | 0 kts | 286° |
| 2026-05-03 21:18 | 34.43330 | 108.75977 | 1576 ft | 0 kts | 286° |
| 2026-05-03 21:18 | 34.43326 | 108.75995 | 1576 ft | 1 kts | 287° |
| 2026-05-03 21:18 | 34.43322 | 108.76009 | 1576 ft | 1 kts | 288° |
| 2026-05-03 21:19 | 34.43319 | 108.76021 | 1576 ft | 1 kts | 290° |
| 2026-05-03 21:19 | 34.43315 | 108.76034 | 1576 ft | 2 kts | 290° |
| 2026-05-03 21:19 | 34.43310 | 108.76049 | 1576 ft | 1 kts | 290° |
| 2026-05-03 21:19 | 34.43307 | 108.76061 | 1576 ft | 1 kts | 289° |
| 2026-05-03 21:20 | 34.43304 | 108.76072 | 1576 ft | 1 kts | 285° |
| 2026-05-03 21:20 | 34.43302 | 108.76082 | 1576 ft | 1 kts | 281° |
| 2026-05-03 21:20 | 34.43301 | 108.76093 | 1576 ft | 1 kts | 277° |
| 2026-05-03 21:20 | 34.43300 | 108.76111 | 1576 ft | 2 kts | 266° |
| 2026-05-03 21:21 | 34.43303 | 108.76127 | 1576 ft | 1 kts | 246° |
| 2026-05-03 21:21 | 34.43308 | 108.76137 | 1576 ft | 0 kts | 234° |
| 2026-05-03 21:21 | 34.43308 | 108.76136 | 1576 ft | 0 kts | 233° |
| 2026-05-03 21:22 | 34.43302 | 108.76128 | 1576 ft | 2 kts | 230° |
| 2026-05-03 21:22 | 34.43288 | 108.76108 | 1576 ft | 4 kts | 229° |
| 2026-05-03 21:22 | 34.43250 | 108.76056 | 1576 ft | 11 kts | 228° |
| 2026-05-03 21:22 | 34.43183 | 108.75965 | 1576 ft | 14 kts | 229° |
| 2026-05-03 21:23 | 34.43099 | 108.75900 | 1576 ft | 13 kts | 160° |
| 2026-05-03 21:23 | 34.43017 | 108.75981 | 1576 ft | 14 kts | 140° |
| 2026-05-03 21:23 | 34.42931 | 108.75942 | 1576 ft | 14 kts | 228° |
| 2026-05-03 21:23 | 34.42856 | 108.75843 | 1576 ft | 15 kts | 227° |
| 2026-05-03 21:24 | 34.42786 | 108.75771 | 1576 ft | 11 kts | 178° |
| 2026-05-03 21:24 | 34.42716 | 108.75826 | 1576 ft | 11 kts | 137° |
| 2026-05-03 21:24 | 34.42641 | 108.75903 | 1576 ft | 16 kts | 140° |
| 2026-05-03 21:24 | 34.42542 | 108.75990 | 1576 ft | 16 kts | 178° |
| 2026-05-03 21:25 | 34.42438 | 108.75929 | 1576 ft | 15 kts | 163° |
| 2026-05-03 21:25 | 34.42347 | 108.76016 | 1576 ft | 15 kts | 137° |
| 2026-05-03 21:25 | 34.42353 | 108.76073 | 1576 ft | 4 kts | 44° |
| 2026-05-03 21:25 | 34.42379 | 108.76111 | 1576 ft | 6 kts | 51° |
| 2026-05-03 21:26 | 34.42534 | 108.76333 | 1576 ft | 70 kts | 50° |
| 2026-05-03 21:26 | 34.43027 | 108.77020 | 1576 ft | 135 kts | 48° |
| 2026-05-03 21:26 | 34.43801 | 108.78106 | 1675 ft | 178 kts | 50° |
| 2026-05-03 21:26 | 34.44670 | 108.79257 | 2384 ft | 175 kts | 45° |
| 2026-05-03 21:27 | 34.45622 | 108.80393 | 3170 ft | 176 kts | 46° |
| 2026-05-03 21:27 | 34.46543 | 108.81580 | 3729 ft | 191 kts | 47° |
| 2026-05-03 21:27 | 34.47546 | 108.82947 | 4270 ft | 211 kts | 49° |
| 2026-05-03 21:27 | 34.48622 | 108.84456 | 4867 ft | 229 kts | 50° |
| 2026-05-03 21:28 | 34.49809 | 108.86147 | 5449 ft | 247 kts | 50° |
| 2026-05-03 21:28 | 34.51077 | 108.87969 | 6056 ft | 265 kts | 50° |
| 2026-05-03 21:28 | 34.52318 | 108.89755 | 6660 ft | 280 kts | 50° |
| 2026-05-03 21:28 | 34.53659 | 108.91685 | 7521 ft | 285 kts | 51° |
| 2026-05-03 21:29 | 34.55084 | 108.93694 | 8521 ft | 288 kts | 49° |
| 2026-05-03 21:29 | 34.56540 | 108.95709 | 9427 ft | 292 kts | 49° |
| 2026-05-03 21:29 | 34.58003 | 108.97729 | 10265 ft | 295 kts | 49° |
| 2026-05-03 21:29 | 34.59517 | 108.99832 | 10909 ft | 307 kts | 49° |
| 2026-05-03 21:30 | 34.61311 | 109.01824 | 11361 ft | 325 kts | 29° |
| 2026-05-03 21:30 | 34.63684 | 109.02752 | 11906 ft | 336 kts | 4° |
| 2026-05-03 21:30 | 34.66283 | 109.02492 | 12776 ft | 338 kts | 350° |
| 2026-05-03 21:30 | 34.68840 | 109.01981 | 13676 ft | 339 kts | 350° |
| 2026-05-03 21:31 | 34.71435 | 109.01471 | 14544 ft | 341 kts | 350° |
| 2026-05-03 21:31 | 34.74031 | 109.00977 | 15319 ft | 345 kts | 350° |
| 2026-05-03 21:31 | 34.76718 | 109.00474 | 15969 ft | 352 kts | 350° |
| 2026-05-03 21:31 | 34.79401 | 108.99990 | 16682 ft | 357 kts | 353° |
| 2026-05-03 21:32 | 34.82209 | 108.99962 | 17403 ft | 363 kts | 4° |
| 2026-05-03 21:32 | 34.84963 | 109.00623 | 18131 ft | 368 kts | 14° |
| 2026-05-03 21:32 | 34.87684 | 109.01659 | 18842 ft | 371 kts | 16° |
| 2026-05-03 21:32 | 34.90422 | 109.02752 | 19515 ft | 375 kts | 16° |
| 2026-05-03 21:33 | 34.93202 | 109.03866 | 20174 ft | 379 kts | 16° |
| 2026-05-03 21:33 | 34.95995 | 109.04978 | 20813 ft | 382 kts | 16° |
| 2026-05-03 21:33 | 34.98832 | 109.06106 | 21430 ft | 386 kts | 16° |
| 2026-05-03 21:33 | 35.01680 | 109.07237 | 22027 ft | 390 kts | 16° |
| 2026-05-03 21:34 | 35.04570 | 109.08381 | 22627 ft | 394 kts | 16° |
| 2026-05-03 21:34 | 35.07502 | 109.09541 | 23212 ft | 398 kts | 16° |
| 2026-05-03 21:34 | 35.10460 | 109.10712 | 23787 ft | 401 kts | 16° |
| 2026-05-03 21:34 | 35.13422 | 109.11887 | 24377 ft | 404 kts | 16° |
| 2026-05-03 21:35 | 35.16422 | 109.13080 | 24967 ft | 406 kts | 16° |
| 2026-05-03 21:35 | 35.19427 | 109.14273 | 25511 ft | 408 kts | 16° |
| 2026-05-03 21:35 | 35.22459 | 109.15477 | 26039 ft | 411 kts | 16° |
| 2026-05-03 21:35 | 35.25483 | 109.16680 | 26537 ft | 413 kts | 15° |
| 2026-05-03 21:36 | 35.28542 | 109.17899 | 27037 ft | 415 kts | 15° |
| 2026-05-03 21:36 | 35.31579 | 109.19108 | 27488 ft | 418 kts | 16° |
| 2026-05-03 21:36 | 35.34675 | 109.20342 | 27941 ft | 420 kts | 15° |
| 2026-05-03 21:36 | 35.37815 | 109.21594 | 28454 ft | 421 kts | 15° |
| 2026-05-03 21:37 | 35.40870 | 109.22815 | 29086 ft | 418 kts | 15° |
| 2026-05-03 21:37 | 35.43935 | 109.24040 | 29716 ft | 415 kts | 15° |
| 2026-05-03 21:37 | 35.46975 | 109.25256 | 30300 ft | 413 kts | 15° |
| 2026-05-03 21:37 | 35.50024 | 109.26476 | 30815 ft | 411 kts | 15° |
| 2026-05-03 21:38 | 35.53042 | 109.27685 | 31280 ft | 411 kts | 15° |
| 2026-05-03 21:38 | 35.56059 | 109.28893 | 31712 ft | 410 kts | 15° |
| 2026-05-03 21:38 | 35.59062 | 109.30098 | 32129 ft | 410 kts | 15° |
| 2026-05-03 21:38 | 35.62102 | 109.31319 | 32547 ft | 409 kts | 15° |
| 2026-05-03 21:39 | 35.65091 | 109.32520 | 32953 ft | 409 kts | 15° |
| 2026-05-03 21:39 | 35.68105 | 109.33732 | 33340 ft | 408 kts | 15° |
| 2026-05-03 21:39 | 35.71076 | 109.35009 | 33648 ft | 410 kts | 19° |
| 2026-05-03 21:39 | 35.73967 | 109.36688 | 33961 ft | 414 kts | 25° |
| 2026-05-03 21:40 | 35.76685 | 109.38771 | 34263 ft | 417 kts | 32° |
| 2026-05-03 21:40 | 35.79210 | 109.41245 | 34480 ft | 421 kts | 38° |
| 2026-05-03 21:40 | 35.81508 | 109.44093 | 34673 ft | 426 kts | 45° |
| 2026-05-03 21:40 | 35.83558 | 109.47273 | 34853 ft | 430 kts | 49° |
| 2026-05-03 21:41 | 35.85512 | 109.50586 | 35039 ft | 432 kts | 50° |
| 2026-05-03 21:41 | 35.87469 | 109.53947 | 35178 ft | 434 kts | 50° |
| 2026-05-03 21:41 | 35.91381 | 109.60657 | 35196 ft | 436 kts | 50° |
| 2026-05-03 21:42 | 35.95318 | 109.67394 | 35215 ft | 437 kts | 50° |
| 2026-05-03 21:42 | 35.99241 | 109.74106 | 35225 ft | 437 kts | 50° |
| 2026-05-03 21:43 | 36.03181 | 109.80860 | 35227 ft | 436 kts | 50° |
| 2026-05-03 21:43 | 36.07090 | 109.87571 | 35223 ft | 435 kts | 50° |
| 2026-05-03 21:44 | 36.10951 | 109.94216 | 35219 ft | 435 kts | 51° |
| 2026-05-03 21:44 | 36.14638 | 110.00571 | 35204 ft | 436 kts | 51° |
| 2026-05-03 21:45 | 36.18295 | 110.06892 | 35208 ft | 436 kts | 50° |
| 2026-05-03 21:45 | 36.21987 | 110.13286 | 35194 ft | 436 kts | 51° |
| 2026-05-03 21:46 | 36.25780 | 110.19875 | 35183 ft | 435 kts | 51° |
| 2026-05-03 21:46 | 36.29583 | 110.26495 | 35174 ft | 434 kts | 51° |
| 2026-05-03 21:47 | 36.33467 | 110.33268 | 35177 ft | 435 kts | 51° |
| 2026-05-03 21:47 | 36.37351 | 110.40057 | 35174 ft | 435 kts | 51° |
| 2026-05-03 21:48 | 36.41237 | 110.46860 | 35170 ft | 434 kts | 50° |
| 2026-05-03 21:48 | 36.45062 | 110.53571 | 35172 ft | 434 kts | 51° |
| 2026-05-03 21:49 | 36.48911 | 110.60338 | 35174 ft | 433 kts | 51° |
| 2026-05-03 21:49 | 36.52766 | 110.67127 | 35177 ft | 434 kts | 51° |
| 2026-05-03 21:50 | 36.56635 | 110.73956 | 35187 ft | 434 kts | 51° |
| 2026-05-03 21:50 | 36.60500 | 110.80795 | 35207 ft | 434 kts | 51° |
| 2026-05-03 21:51 | 36.64365 | 110.87643 | 35216 ft | 433 kts | 51° |
| 2026-05-03 21:51 | 36.68216 | 110.94484 | 35221 ft | 433 kts | 51° |
| 2026-05-03 21:52 | 36.72193 | 111.01125 | 35223 ft | 430 kts | 46° |
| 2026-05-03 21:52 | 36.76460 | 111.07101 | 35080 ft | 429 kts | 44° |
| 2026-05-03 21:53 | 36.78656 | 111.10133 | 34743 ft | 426 kts | 44° |
| 2026-05-03 21:53 | 36.80705 | 111.12968 | 34280 ft | 424 kts | 44° |
| 2026-05-03 21:53 | 36.82906 | 111.16018 | 33585 ft | 424 kts | 44° |
| 2026-05-03 21:53 | 36.85094 | 111.19054 | 32870 ft | 424 kts | 44° |
| 2026-05-03 21:54 | 36.87290 | 111.22107 | 32129 ft | 425 kts | 44° |
| 2026-05-03 21:54 | 36.89510 | 111.25196 | 31372 ft | 426 kts | 44° |
| 2026-05-03 21:54 | 36.91694 | 111.28239 | 30618 ft | 427 kts | 44° |
| 2026-05-03 21:54 | 36.93905 | 111.31322 | 29826 ft | 428 kts | 44° |
| 2026-05-03 21:55 | 36.96030 | 111.34290 | 29054 ft | 428 kts | 44° |
| 2026-05-03 21:55 | 36.98093 | 111.37175 | 28304 ft | 429 kts | 44° |
| 2026-05-03 21:55 | 37.00094 | 111.39973 | 27616 ft | 428 kts | 44° |
| 2026-05-03 21:55 | 37.02274 | 111.43028 | 27094 ft | 422 kts | 44° |
| 2026-05-03 21:56 | 37.04440 | 111.46067 | 26554 ft | 416 kts | 44° |
| 2026-05-03 21:56 | 37.06562 | 111.49045 | 26014 ft | 412 kts | 44° |
| 2026-05-03 21:56 | 37.08673 | 111.52007 | 25477 ft | 407 kts | 44° |
| 2026-05-03 21:56 | 37.10769 | 111.54951 | 24941 ft | 404 kts | 44° |
| 2026-05-03 21:57 | 37.12845 | 111.57870 | 24394 ft | 400 kts | 44° |
| 2026-05-03 21:57 | 37.14898 | 111.60757 | 23858 ft | 397 kts | 44° |
| 2026-05-03 21:57 | 37.16950 | 111.63650 | 23326 ft | 394 kts | 44° |
| 2026-05-03 21:57 | 37.18947 | 111.66466 | 22809 ft | 391 kts | 44° |
| 2026-05-03 21:58 | 37.20963 | 111.69309 | 22276 ft | 388 kts | 44° |
| 2026-05-03 21:58 | 37.22912 | 111.72063 | 21761 ft | 385 kts | 44° |
| 2026-05-03 21:58 | 37.24854 | 111.74947 | 21224 ft | 383 kts | 49° |
| 2026-05-03 21:58 | 37.26515 | 111.77966 | 20706 ft | 383 kts | 54° |
| 2026-05-03 21:59 | 37.27969 | 111.81239 | 20173 ft | 383 kts | 58° |
| 2026-05-03 21:59 | 37.29294 | 111.84479 | 19662 ft | 380 kts | 59° |
| 2026-05-03 21:59 | 37.30668 | 111.87762 | 19136 ft | 377 kts | 57° |
| 2026-05-03 21:59 | 37.32162 | 111.90790 | 18622 ft | 372 kts | 52° |
| 2026-05-03 22:00 | 37.33745 | 111.93520 | 18126 ft | 369 kts | 49° |
| 2026-05-03 22:00 | 37.35480 | 111.96345 | 17611 ft | 365 kts | 49° |
| 2026-05-03 22:00 | 37.37197 | 111.99124 | 17100 ft | 363 kts | 49° |
| 2026-05-03 22:00 | 37.38865 | 112.01826 | 16591 ft | 360 kts | 49° |
| 2026-05-03 22:01 | 37.40561 | 112.04578 | 16079 ft | 358 kts | 49° |
| 2026-05-03 22:01 | 37.42210 | 112.07261 | 15578 ft | 355 kts | 49° |
| 2026-05-03 22:01 | 37.43857 | 112.09943 | 15073 ft | 352 kts | 49° |
| 2026-05-03 22:01 | 37.45493 | 112.12621 | 14572 ft | 349 kts | 49° |
| 2026-05-03 22:02 | 37.47074 | 112.15288 | 14108 ft | 346 kts | 49° |
| 2026-05-03 22:02 | 37.48598 | 112.17881 | 13898 ft | 333 kts | 49° |
| 2026-05-03 22:02 | 37.50053 | 112.20357 | 13626 ft | 323 kts | 49° |
| 2026-05-03 22:02 | 37.51387 | 112.22623 | 13431 ft | 313 kts | 49° |
| 2026-05-03 22:03 | 37.52722 | 112.24890 | 13322 ft | 299 kts | 49° |
| 2026-05-03 22:03 | 37.54071 | 112.27182 | 13221 ft | 286 kts | 48° |
| 2026-05-03 22:03 | 37.55356 | 112.29362 | 13124 ft | 272 kts | 48° |
| 2026-05-03 22:03 | 37.56569 | 112.31426 | 13030 ft | 260 kts | 47° |
| 2026-05-03 22:04 | 37.57717 | 112.33379 | 12954 ft | 249 kts | 47° |
| 2026-05-03 22:04 | 37.59003 | 112.35070 | 12675 ft | 239 kts | 24° |
| 2026-05-03 22:04 | 37.60715 | 112.35614 | 12327 ft | 229 kts | 353° |
| 2026-05-03 22:04 | 37.62395 | 112.34935 | 11915 ft | 227 kts | 330° |
| 2026-05-03 22:05 | 37.63885 | 112.33849 | 11561 ft | 227 kts | 330° |
| 2026-05-03 22:05 | 37.65427 | 112.32840 | 11206 ft | 225 kts | 334° |
| 2026-05-03 22:05 | 37.67015 | 112.31988 | 10865 ft | 226 kts | 338° |
| 2026-05-03 22:05 | 37.68667 | 112.31288 | 10553 ft | 226 kts | 341° |
| 2026-05-03 22:06 | 37.70376 | 112.30740 | 10248 ft | 227 kts | 345° |
| 2026-05-03 22:06 | 37.72065 | 112.30361 | 9938 ft | 227 kts | 348° |
| 2026-05-03 22:06 | 37.73837 | 112.30128 | 9628 ft | 228 kts | 353° |
| 2026-05-03 22:06 | 37.75599 | 112.30057 | 9298 ft | 229 kts | 356° |
| 2026-05-03 22:07 | 37.77326 | 112.30144 | 8992 ft | 230 kts | 1° |
| 2026-05-03 22:07 | 37.79104 | 112.30393 | 8672 ft | 230 kts | 5° |
| 2026-05-03 22:07 | 37.80843 | 112.30800 | 8364 ft | 232 kts | 9° |
| 2026-05-03 22:07 | 37.82560 | 112.31364 | 8065 ft | 233 kts | 13° |
| 2026-05-03 22:08 | 37.84269 | 112.32094 | 7738 ft | 234 kts | 18° |
| 2026-05-03 22:08 | 37.85945 | 112.32986 | 7366 ft | 235 kts | 22° |
| 2026-05-03 22:08 | 37.87542 | 112.34081 | 7015 ft | 236 kts | 37° |
| 2026-05-03 22:08 | 37.88595 | 112.35938 | 6617 ft | 240 kts | 73° |
| 2026-05-03 22:09 | 37.88639 | 112.38103 | 6310 ft | 237 kts | 108° |
| 2026-05-03 22:09 | 37.87843 | 112.40041 | 6260 ft | 236 kts | 126° |
| 2026-05-03 22:09 | 37.86771 | 112.41872 | 6244 ft | 229 kts | 128° |
| 2026-05-03 22:10 | 37.84684 | 112.45261 | 5794 ft | 219 kts | 128° |
| 2026-05-03 22:10 | 37.83666 | 112.46937 | 5487 ft | 218 kts | 128° |
| 2026-05-03 22:10 | 37.82727 | 112.48581 | 5384 ft | 206 kts | 120° |
| 2026-05-03 22:10 | 37.81975 | 112.50275 | 5377 ft | 200 kts | 120° |
| 2026-05-03 22:11 | 37.81173 | 112.51909 | 5196 ft | 194 kts | 123° |
| 2026-05-03 22:11 | 37.80346 | 112.53419 | 4794 ft | 188 kts | 126° |
| 2026-05-03 22:11 | 37.79496 | 112.54840 | 4352 ft | 184 kts | 127° |
| 2026-05-03 22:11 | 37.78661 | 112.56217 | 3939 ft | 176 kts | 127° |
| 2026-05-03 22:12 | 37.77862 | 112.57549 | 3462 ft | 170 kts | 126° |
| 2026-05-03 22:12 | 37.77099 | 112.58825 | 3066 ft | 161 kts | 126° |
| 2026-05-03 22:12 | 37.76391 | 112.60005 | 2851 ft | 143 kts | 126° |
| 2026-05-03 22:12 | 37.75740 | 112.61094 | 2646 ft | 140 kts | 126° |
| 2026-05-03 22:13 | 37.75110 | 112.62148 | 2554 ft | 122 kts | 126° |
| 2026-05-03 22:13 | 37.74667 | 112.62884 | 2558 ft | 65 kts | 126° |
| 2026-05-03 22:13 | 37.74542 | 112.63116 | 2561 ft | 24 kts | 115° |
| 2026-05-03 22:13 | 37.74502 | 112.63325 | 2564 ft | 20 kts | 96° |
| 2026-05-03 22:14 | 37.74497 | 112.63412 | 2565 ft | 7 kts | 66° |
| 2026-05-03 22:14 | 37.74542 | 112.63432 | 2566 ft | 7 kts | 337° |
| 2026-05-03 22:14 | 37.74583 | 112.63373 | 2565 ft | 9 kts | 308° |
| 2026-05-03 22:14 | 37.74642 | 112.63280 | 2563 ft | 16 kts | 306° |
| 2026-05-03 22:15 | 37.74727 | 112.63135 | 2561 ft | 19 kts | 307° |
| 2026-05-03 22:15 | 37.74811 | 112.62996 | 2561 ft | 8 kts | 307° |
| 2026-05-03 22:15 | 37.74866 | 112.62977 | 2560 ft | 9 kts | 25° |
| 2026-05-03 22:15 | 37.74930 | 112.63035 | 2559 ft | 11 kts | 27° |
| 2026-05-03 22:16 | 37.74986 | 112.63005 | 2558 ft | 0 kts | 306° |
| 2026-05-03 22:16 | 37.74986 | 112.63006 | 2558 ft | 0 kts | 306° |